Time;durP1;ratioP1;P1;durP2;ratioP2;P2;SDS_P1;SDS_P2;PMS_P1;PMS_P2;Temp;Humidity;BMP_temperature;BMP_pressure;BME280_temperature;BME280_humidity;BME280_pressure;Samples;Min_cycle;Max_cycle;Signal;HPM_P1;HPM_P2
2022/05/05 00:02:12;;;;;;;7.10;5.82;;;5.90;99.90;;;;;;5006663;28;20298;-85
2022/05/05 00:04:42;;;;;;;5.90;5.30;;;5.90;99.90;;;;;;5008938;28;20227;-84
2022/05/05 00:07:10;;;;;;;7.53;5.47;;;5.90;99.90;;;;;;5007890;28;20209;-85
2022/05/05 00:09:38;;;;;;;6.63;5.45;;;5.80;99.90;;;;;;5007059;28;20223;-85
2022/05/05 00:14:52;;;;;;;5.50;4.95;;;5.70;99.90;;;;;;5006782;28;20266;-86
2022/05/05 00:17:20;;;;;;;6.55;5.70;;;5.70;99.90;;;;;;5006906;28;20306;-85
2022/05/05 00:19:50;;;;;;;6.45;5.20;;;5.60;99.90;;;;;;5005743;28;20298;-86
2022/05/05 00:22:18;;;;;;;6.55;6.05;;;5.60;99.90;;;;;;5007799;28;20213;-85
2022/05/05 00:24:46;;;;;;;6.25;5.40;;;5.60;99.90;;;;;;5008452;28;20207;-85
2022/05/05 00:27:14;;;;;;;6.18;5.60;;;5.60;99.90;;;;;;5008168;28;20206;-86
2022/05/05 00:29:42;;;;;;;12.07;6.45;;;5.60;99.90;;;;;;5006258;28;20232;-84
2022/05/05 00:32:11;;;;;;;6.68;5.90;;;5.50;99.90;;;;;;5008855;28;20203;-85
2022/05/05 00:34:39;;;;;;;8.43;6.00;;;5.50;99.90;;;;;;5009325;28;20210;-86
2022/05/05 00:37:08;;;;;;;9.77;7.32;;;5.50;99.90;;;;;;5008911;28;20205;-86
2022/05/05 00:39:36;;;;;;;6.20;5.70;;;5.50;99.90;;;;;;5008342;28;20222;-84
2022/05/05 00:42:10;;;;;;;6.10;5.70;;;5.40;99.90;;;;;;5008556;28;20199;-85
2022/05/05 00:44:38;;;;;;;5.72;5.22;;;5.40;99.90;;;;;;5008674;28;20225;-84
2022/05/05 00:47:06;;;;;;;6.78;5.40;;;5.40;99.90;;;;;;5007735;28;20207;-84
2022/05/05 00:49:34;;;;;;;6.50;5.93;;;5.40;99.90;;;;;;5006970;28;20844;-83
2022/05/05 00:52:02;;;;;;;5.65;5.13;;;5.40;99.90;;;;;;5006902;28;20286;-84
2022/05/05 00:54:31;;;;;;;10.80;6.30;;;5.30;99.90;;;;;;5006773;28;20209;-85
2022/05/05 00:56:59;;;;;;;6.40;5.78;;;5.30;99.90;;;;;;5007842;28;20195;-85
2022/05/05 00:59:27;;;;;;;7.60;6.20;;;5.20;99.90;;;;;;5019803;28;20227;-84
2022/05/05 01:01:55;;;;;;;10.63;6.38;;;5.20;99.90;;;;;;5020827;28;20294;-84
2022/05/05 01:04:25;;;;;;;8.95;6.60;;;5.20;99.90;;;;;;5010087;28;20214;-83
2022/05/05 01:06:53;;;;;;;7.28;5.72;;;5.10;99.90;;;;;;5009416;28;20408;-83
2022/05/05 01:09:22;;;;;;;6.22;5.68;;;5.10;99.90;;;;;;5008365;28;20289;-83
2022/05/05 01:11:51;;;;;;;7.93;6.40;;;5.10;99.90;;;;;;5008549;28;20198;-83
2022/05/05 01:14:19;;;;;;;10.50;6.70;;;5.10;99.90;;;;;;5007343;28;20293;-82
2022/05/05 01:16:47;;;;;;;7.75;6.50;;;5.00;99.90;;;;;;5008427;28;20691;-84
2022/05/05 01:19:15;;;;;;;7.80;6.53;;;5.00;99.90;;;;;;5007599;28;20370;-84
2022/05/05 01:21:52;;;;;;;11.60;7.10;;;4.90;99.90;;;;;;5007922;28;20460;-83
2022/05/05 01:28:10;;;;;;;9.60;6.80;;;4.90;99.90;;;;;;5008745;28;20290;-83
2022/05/05 01:29:56;;;;;;;8.13;7.32;;;4.90;99.90;;;;;;5006692;28;20939;-83
2022/05/05 01:32:31;;;;;;;7.53;6.72;;;4.80;99.90;;;;;;5007113;28;20706;-83
2022/05/05 01:34:59;;;;;;;10.30;7.38;;;4.80;99.90;;;;;;5006719;28;20361;-83
2022/05/05 01:37:29;;;;;;;12.27;7.88;;;4.70;99.90;;;;;;5005780;28;20209;-83
2022/05/05 01:39:57;;;;;;;13.68;6.90;;;4.70;99.90;;;;;;5005815;28;20257;-83
2022/05/05 01:42:25;;;;;;;6.90;6.22;;;4.70;99.90;;;;;;5004933;28;20826;-84
2022/05/05 01:44:52;;;;;;;9.40;6.95;;;4.70;99.90;;;;;;5006914;28;20238;-83
2022/05/05 01:47:20;;;;;;;7.95;7.25;;;4.70;99.90;;;;;;5010506;28;20856;-83
2022/05/05 01:49:48;;;;;;;11.65;7.40;;;4.60;99.90;;;;;;5007662;28;20321;-83
2022/05/05 01:52:16;;;;;;;8.55;6.80;;;4.60;99.90;;;;;;5008254;28;20211;-84
2022/05/05 01:54:46;;;;;;;8.05;7.18;;;4.50;99.90;;;;;;5007681;28;20226;-83
2022/05/05 01:57:14;;;;;;;12.98;7.28;;;4.60;99.90;;;;;;5008796;28;20203;-84
2022/05/05 01:59:41;;;;;;;7.65;6.55;;;4.60;99.90;;;;;;5008723;28;20306;-85
2022/05/05 02:02:09;;;;;;;12.07;7.20;;;4.50;99.90;;;;;;5013082;28;20207;-82
2022/05/05 02:04:37;;;;;;;8.68;6.32;;;4.50;99.90;;;;;;5031204;28;20278;-84
2022/05/05 02:07:05;;;;;;;6.93;6.40;;;4.50;99.90;;;;;;5008817;28;20203;-84
2022/05/05 02:09:33;;;;;;;7.90;7.20;;;4.40;99.90;;;;;;5007695;28;20226;-84
2022/05/05 02:12:03;;;;;;;7.85;7.15;;;4.40;99.90;;;;;;5010995;28;20294;-85
2022/05/05 02:14:31;;;;;;;7.60;6.90;;;4.40;99.90;;;;;;5018986;28;20670;-84
2022/05/05 02:16:59;;;;;;;7.93;5.95;;;4.30;99.90;;;;;;5007812;28;20203;-82
2022/05/05 02:19:27;;;;;;;8.07;6.78;;;4.30;99.90;;;;;;5006756;28;20269;-84
2022/05/05 02:21:55;;;;;;;8.95;7.80;;;4.30;99.90;;;;;;5007505;28;20233;-84
2022/05/05 02:24:23;;;;;;;9.77;6.65;;;4.30;99.90;;;;;;5008420;28;20239;-85
2022/05/05 02:26:51;;;;;;;8.85;7.82;;;4.30;99.90;;;;;;5008835;28;20233;-84
2022/05/05 02:29:20;;;;;;;10.48;6.95;;;4.20;99.90;;;;;;5008384;28;20259;-84
2022/05/05 02:31:48;;;;;;;11.45;8.10;;;4.20;99.90;;;;;;5008521;28;20870;-84
2022/05/05 02:34:16;;;;;;;7.20;6.57;;;4.20;99.90;;;;;;5010105;28;20230;-85
2022/05/05 02:39:29;;;;;;;8.50;7.00;;;4.20;99.90;;;;;;5010329;28;20927;-83
2022/05/05 02:41:57;;;;;;;8.82;7.68;;;4.10;99.90;;;;;;5008930;28;20207;-85
2022/05/05 02:44:27;;;;;;;11.38;7.75;;;4.10;99.90;;;;;;5008433;28;20202;-84
2022/05/05 02:46:54;;;;;;;14.00;8.18;;;4.10;99.90;;;;;;5008242;28;20769;-84
2022/05/05 02:49:27;;;;;;;10.45;7.10;;;4.10;99.90;;;;;;5008456;28;20289;-85
2022/05/05 02:51:55;;;;;;;8.55;7.55;;;4.10;99.90;;;;;;5009591;28;20338;-84
2022/05/05 02:57:08;;;;;;;8.80;7.72;;;4.10;99.90;;;;;;5019116;28;20203;-84
2022/05/05 02:59:37;;;;;;;10.00;7.32;;;4.00;99.90;;;;;;5020450;28;20291;-84
2022/05/05 03:02:05;;;;;;;8.10;7.30;;;4.00;99.90;;;;;;5020310;28;20227;-84
2022/05/05 03:04:33;;;;;;;8.45;7.60;;;4.00;99.90;;;;;;5015509;28;20187;-84
2022/05/05 03:07:03;;;;;;;9.02;8.10;;;4.00;99.90;;;;;;5029515;28;20203;-84
2022/05/05 03:09:31;;;;;;;7.93;7.13;;;4.00;99.90;;;;;;5009257;28;20279;-84
2022/05/05 03:11:59;;;;;;;9.07;7.40;;;4.00;99.90;;;;;;5007815;28;20217;-84
2022/05/05 03:14:27;;;;;;;8.60;7.78;;;3.90;99.90;;;;;;5007333;28;20206;-84
2022/05/05 03:16:56;;;;;;;10.35;7.60;;;3.90;99.90;;;;;;5007445;28;20231;-85
2022/05/05 03:19:26;;;;;;;8.93;7.38;;;3.90;99.90;;;;;;5007633;28;20205;-85
2022/05/05 03:21:55;;;;;;;9.02;8.10;;;3.90;99.90;;;;;;5007158;28;20355;-85
2022/05/05 03:24:23;;;;;;;10.38;7.85;;;3.80;99.90;;;;;;5008043;28;20203;-84
2022/05/05 03:26:51;;;;;;;10.55;7.75;;;3.80;99.90;;;;;;5005971;28;20234;-84
2022/05/05 03:29:18;;;;;;;9.20;8.27;;;3.80;99.90;;;;;;5005490;28;20797;-83
2022/05/05 03:31:46;;;;;;;9.23;8.32;;;3.80;99.90;;;;;;5005746;28;20223;-84
2022/05/05 03:34:16;;;;;;;10.38;7.85;;;3.80;99.90;;;;;;5004808;28;20213;-84
2022/05/05 03:36:44;;;;;;;12.15;8.75;;;3.80;99.90;;;;;;5005998;28;20207;-84
2022/05/05 03:39:11;;;;;;;9.75;8.85;;;3.80;99.90;;;;;;5006621;28;20229;-83
2022/05/05 03:41:42;;;;;;;9.32;8.43;;;3.80;99.90;;;;;;5005310;28;20213;-84
2022/05/05 03:44:14;;;;;;;9.15;8.23;;;3.90;99.90;;;;;;5005683;28;20203;-83
2022/05/05 03:46:52;;;;;;;9.60;8.23;;;3.80;99.90;;;;;;5005863;28;20210;-84
2022/05/05 03:49:27;;;;;;;14.15;9.98;;;3.90;99.90;;;;;;5005674;28;20272;-84
2022/05/05 03:52:03;;;;;;;15.00;8.85;;;3.90;99.90;;;;;;5006034;28;20285;-84
2022/05/05 03:54:41;;;;;;;14.57;8.30;;;3.90;99.90;;;;;;5006963;28;20446;-84
2022/05/05 03:57:09;;;;;;;12.20;8.70;;;3.90;99.90;;;;;;5006738;28;20213;-84
2022/05/05 03:59:37;;;;;;;13.82;9.07;;;3.90;99.90;;;;;;5007206;28;20225;-84
2022/05/05 04:02:06;;;;;;;11.77;8.48;;;4.00;99.90;;;;;;5008342;28;20203;-85
2022/05/05 04:04:35;;;;;;;17.73;9.73;;;4.00;99.90;;;;;;5010193;28;20213;-85
2022/05/05 04:07:03;;;;;;;10.73;9.25;;;4.00;99.90;;;;;;5009653;28;20222;-84
2022/05/05 04:09:31;;;;;;;13.40;9.80;;;4.10;99.90;;;;;;5024923;28;20299;-84
2022/05/05 04:11:59;;;;;;;12.15;9.90;;;4.10;99.90;;;;;;5012620;28;20309;-84
2022/05/05 04:14:27;;;;;;;10.13;9.13;;;4.10;99.90;;;;;;5004257;28;20294;-84
2022/05/05 04:16:55;;;;;;;11.60;10.00;;;4.20;99.90;;;;;;5004333;28;20229;-83
2022/05/05 04:19:23;;;;;;;14.65;10.32;;;4.30;99.90;;;;;;5001759;28;20698;-83
2022/05/05 04:21:52;;;;;;;11.10;9.65;;;4.30;99.90;;;;;;5003933;28;20191;-83
2022/05/05 04:24:20;;;;;;;14.05;10.65;;;4.40;99.90;;;;;;5005403;28;20205;-84
2022/05/05 04:26:49;;;;;;;12.85;9.65;;;4.50;99.90;;;;;;5004398;28;20203;-84
2022/05/05 04:29:17;;;;;;;10.93;9.68;;;4.60;99.90;;;;;;5002341;28;20674;-83
2022/05/05 04:31:45;;;;;;;15.38;9.45;;;4.70;99.90;;;;;;5007311;28;20227;-86
2022/05/05 04:34:13;;;;;;;12.10;9.90;;;4.80;99.90;;;;;;5007629;28;20385;-84
2022/05/05 04:36:41;;;;;;;10.77;9.60;;;4.90;99.90;;;;;;5007748;28;20203;-88
2022/05/05 04:39:11;;;;;;;12.90;9.50;;;5.00;99.90;;;;;;5012335;28;20466;-86
2022/05/05 04:41:39;;;;;;;11.68;10.00;;;5.10;99.90;;;;;;5010736;28;20225;-86
2022/05/05 04:44:07;;;;;;;11.48;10.30;;;5.20;99.90;;;;;;5011603;28;20709;-86
2022/05/05 04:46:35;;;;;;;11.70;10.50;;;5.30;99.90;;;;;;5004831;28;20207;-87
2022/05/05 04:49:03;;;;;;;11.52;9.70;;;5.40;99.90;;;;;;5003893;28;20211;-86
2022/05/05 04:51:31;;;;;;;12.00;10.82;;;5.50;99.90;;;;;;4992869;28;20224;-87
2022/05/05 04:53:59;;;;;;;13.43;10.20;;;5.70;99.90;;;;;;5005716;28;20261;-88
2022/05/05 05:03:51;;;;;;;11.13;9.70;;;5.90;99.90;;;;;;4975909;28;20252;-87
2022/05/05 05:06:19;;;;;;;11.73;8.75;;;6.00;99.90;;;;;;4990422;28;20271;-87
2022/05/05 05:08:47;;;;;;;11.35;9.20;;;6.00;99.90;;;;;;4983820;28;20274;-87
2022/05/05 05:11:15;;;;;;;10.85;9.45;;;6.10;99.90;;;;;;4973582;28;20275;-87
2022/05/05 05:13:43;;;;;;;10.02;8.82;;;6.10;99.90;;;;;;5003660;28;20191;-87
2022/05/05 05:16:11;;;;;;;10.50;8.73;;;6.10;99.90;;;;;;4994851;28;20199;-86
2022/05/05 05:19:01;;;;;;;9.43;8.52;;;6.20;99.90;;;;;;4997310;28;20210;-86
2022/05/05 05:21:29;;;;;;;9.38;8.32;;;6.30;99.90;;;;;;5014778;28;20298;-89
2022/05/05 05:24:03;;;;;;;12.85;9.73;;;6.30;99.90;;;;;;5015210;28;20227;-89
2022/05/05 05:26:34;;;;;;;11.32;7.72;;;6.40;99.90;;;;;;4998719;28;20281;-86
2022/05/05 05:29:03;;;;;;;9.98;8.60;;;6.50;99.90;;;;;;4993760;28;20216;-87
2022/05/05 05:31:31;;;;;;;8.52;7.60;;;6.60;99.90;;;;;;4995498;28;20243;-87
2022/05/05 05:34:00;;;;;;;8.45;7.65;;;6.70;99.90;;;;;;4994550;28;20211;-85
2022/05/05 05:36:29;;;;;;;9.23;8.32;;;6.70;99.90;;;;;;5004232;28;20215;-90
2022/05/05 05:38:57;;;;;;;10.88;8.98;;;6.80;99.90;;;;;;5018997;28;20210;-87
2022/05/05 05:41:25;;;;;;;8.30;7.45;;;6.90;99.90;;;;;;5017042;28;20215;-89
2022/05/05 05:43:54;;;;;;;10.10;9.07;;;6.90;99.90;;;;;;5015547;28;20214;-88
2022/05/05 05:46:42;;;;;;;9.93;7.15;;;7.10;99.90;;;;;;5018541;28;20211;-89
2022/05/05 05:49:12;;;;;;;10.40;7.47;;;7.10;99.90;;;;;;5017449;28;20235;-89
2022/05/05 05:51:41;;;;;;;8.15;7.30;;;7.20;99.90;;;;;;5015382;28;20218;-89
2022/05/05 05:54:09;;;;;;;7.93;6.18;;;7.30;99.90;;;;;;5020174;28;20382;-87
2022/05/05 05:56:38;;;;;;;7.97;5.93;;;7.50;99.90;;;;;;5030776;28;20219;-90
2022/05/05 05:59:07;;;;;;;6.60;5.85;;;7.60;99.90;;;;;;5032009;28;20191;-90
2022/05/05 06:04:24;;;;;;;6.20;5.50;;;7.90;99.90;;;;;;5032271;28;20246;-90
2022/05/05 06:06:55;;;;;;;5.35;4.85;;;8.00;99.90;;;;;;5030902;28;20195;-88
2022/05/05 06:09:24;;;;;;;8.50;4.80;;;8.00;99.90;;;;;;5010532;28;20234;-88
2022/05/05 06:11:52;;;;;;;6.85;4.47;;;8.20;99.90;;;;;;5018702;28;20210;-88
2022/05/05 06:14:22;;;;;;;5.53;4.63;;;8.30;99.90;;;;;;5025101;28;20467;-88
2022/05/05 06:16:52;;;;;;;7.43;5.07;;;8.40;99.90;;;;;;5033463;28;20242;-88
2022/05/05 06:19:20;;;;;;;6.05;4.30;;;8.50;99.90;;;;;;5016727;28;20207;-89
2022/05/05 06:21:50;;;;;;;6.72;4.20;;;8.60;99.90;;;;;;4999293;28;20204;-88
2022/05/05 06:24:18;;;;;;;4.50;3.85;;;8.70;99.90;;;;;;4998361;28;20200;-88
2022/05/05 06:26:47;;;;;;;4.05;3.65;;;8.80;99.90;;;;;;4996589;28;20192;-88
2022/05/05 06:29:20;;;;;;;4.15;3.70;;;8.90;99.90;;;;;;4996578;28;20730;-89
2022/05/05 06:31:48;;;;;;;3.03;2.70;;;9.00;99.90;;;;;;5005676;28;20214;-85
2022/05/05 06:34:17;;;;;;;3.15;2.70;;;9.10;99.90;;;;;;5014003;28;20213;-89
2022/05/05 06:37:13;;;;;;;9.38;3.88;;;9.20;99.90;;;;;;5012578;28;20294;-88
2022/05/05 07:17:30;;;;;;;4.45;2.30;;;9.60;99.90;;;;;;4710709;30;20623;-83
2022/05/05 08:12:31;;;;;;;6.15;2.90;;;11.00;99.90;;;;;;4703822;30;20251;-84
2022/05/05 08:15:43;;;;;;;5.30;3.10;;;11.10;99.90;;;;;;4725978;30;20697;-85
2022/05/05 08:21:19;;;;;;;4.13;3.08;;;11.30;99.90;;;;;;4764843;29;20505;-84
2022/05/05 08:23:47;;;;;;;5.72;2.85;;;11.40;99.90;;;;;;4905717;29;20198;-85
2022/05/05 08:29:01;;;;;;;4.80;3.07;;;11.60;99.90;;;;;;4911307;29;20966;-86
2022/05/05 08:31:29;;;;;;;7.10;2.77;;;11.60;99.90;;;;;;4911566;29;20498;-85
2022/05/05 08:33:58;;;;;;;6.13;2.93;;;11.60;99.90;;;;;;4911942;29;20552;-84
2022/05/05 08:36:29;;;;;;;8.03;3.07;;;11.70;99.90;;;;;;4912258;29;20450;-84
2022/05/05 08:38:58;;;;;;;4.30;2.97;;;11.80;99.90;;;;;;4912669;29;20458;-85
2022/05/05 08:41:26;;;;;;;3.33;2.70;;;11.90;99.90;;;;;;4911848;29;20466;-82
2022/05/05 08:43:54;;;;;;;3.00;2.60;;;12.00;99.90;;;;;;4913013;29;20486;-85
2022/05/05 08:46:33;;;;;;;3.10;2.50;;;12.10;99.90;;;;;;4912323;29;20505;-83
2022/05/05 08:49:24;;;;;;;3.10;2.80;;;12.20;99.90;;;;;;4911946;29;20462;-84
2022/05/05 08:51:55;;;;;;;2.93;2.63;;;12.30;99.90;;;;;;4912549;29;20538;-86
2022/05/05 08:54:25;;;;;;;3.33;2.50;;;12.40;99.90;;;;;;4911717;29;20482;-86
2022/05/05 08:56:54;;;;;;;5.37;3.20;;;12.50;99.90;;;;;;4914756;29;20469;-85
2022/05/05 08:59:23;;;;;;;4.40;2.53;;;12.50;99.90;;;;;;4910362;29;21065;-85
2022/05/05 09:01:52;;;;;;;5.80;2.70;;;12.60;99.90;;;;;;4912103;29;20563;-85
2022/05/05 09:04:28;;;;;;;4.67;2.37;;;12.70;99.90;;;;;;4915643;29;20423;-86
2022/05/05 09:06:56;;;;;;;3.03;2.70;;;12.80;99.90;;;;;;4915614;29;20490;-85
2022/05/05 09:09:32;;;;;;;5.97;3.17;;;12.90;99.90;;;;;;4911631;29;20483;-86
2022/05/05 09:12:20;;;;;;;3.80;3.10;;;13.00;99.90;;;;;;4914565;29;20454;-86
2022/05/05 09:15:00;;;;;;;3.67;3.10;;;13.10;99.90;;;;;;4913613;29;20483;-87
2022/05/05 09:17:29;;;;;;;1.80;1.67;;;13.30;99.90;;;;;;4913595;29;20549;-86
2022/05/05 09:20:06;;;;;;;2.13;1.93;;;13.30;99.90;;;;;;4914374;29;20462;-84
2022/05/05 09:22:51;;;;;;;3.77;1.90;;;13.40;99.90;;;;;;4914445;29;20466;-85
2022/05/05 09:25:22;;;;;;;4.33;2.50;;;13.40;99.90;;;;;;4919432;29;20470;-86
2022/05/05 09:27:54;;;;;;;5.90;2.83;;;13.50;99.90;;;;;;4936760;29;20482;-84
2022/05/05 09:31:12;;;;;;;4.60;2.40;;;13.50;99.90;;;;;;4918594;29;20470;-85
2022/05/05 09:34:21;;;;;;;2.30;1.80;;;13.50;99.90;;;;;;4911750;29;20478;-84
2022/05/05 09:51:12;;;;;;;4.67;2.53;;;13.60;99.90;;;;;;6305092;22;20262;-84
2022/05/05 10:08:01;;;;;;;3.53;2.73;;;15.00;99.90;;;;;;6099186;22;4414147;-85
2022/05/05 10:10:46;;;;;;;2.43;2.30;;;15.10;99.90;;;;;;6142603;23;20194;-86
2022/05/05 10:13:20;;;;;;;8.80;2.63;;;15.20;99.90;;;;;;6156061;23;20930;-84
2022/05/05 10:15:52;;;;;;;3.03;2.70;;;15.20;99.90;;;;;;6155277;23;20434;-87
2022/05/05 10:22:18;;;;;;;3.33;2.70;;;15.20;99.90;;;;;;6155850;23;20546;-86
2022/05/05 10:24:54;;;;;;;4.63;2.70;;;15.20;99.90;;;;;;6145357;23;20418;-87
2022/05/05 10:27:50;;;;;;;5.27;3.27;;;15.20;99.90;;;;;;6157249;23;20490;-84
2022/05/05 10:34:44;;;;;;;6.63;2.57;;;15.20;99.90;;;;;;5984708;23;20928;-86
2022/05/05 10:41:55;;;;;;;2.10;1.97;;;15.10;99.90;;;;;;6121138;23;20474;-86
2022/05/05 11:00:51;;;;;;;5.13;3.20;;;15.10;99.90;;;;;;6047051;23;20931;-85
2022/05/05 11:25:41;;;;;;;3.10;2.90;;;15.60;99.90;;;;;;6119728;22;20858;-85
2022/05/05 11:28:37;;;;;;;3.30;3.00;;;15.60;99.90;;;;;;6227499;22;20962;-85
2022/05/05 11:42:26;;;;;;;8.43;4.03;;;15.90;99.90;;;;;;6228536;22;20466;-85
2022/05/05 11:45:27;;;;;;;5.33;3.20;;;16.30;99.90;;;;;;6246021;23;20403;-85
2022/05/05 11:52:32;;;;;;;3.20;2.90;;;17.00;99.90;;;;;;6117076;23;20450;-83
2022/05/05 12:02:02;;;;;;;3.17;2.93;;;17.00;99.90;;;;;;6090983;23;20460;-84
2022/05/05 12:04:54;;;;;;;3.60;2.67;;;16.90;99.90;;;;;;6117049;23;20418;-83
2022/05/05 12:07:26;;;;;;;4.40;3.97;;;16.90;99.90;;;;;;6113621;23;20408;-84
2022/05/05 12:09:55;;;;;;;4.00;2.70;;;16.90;99.90;;;;;;6113281;23;20435;-83
2022/05/05 12:12:30;;;;;;;4.20;3.33;;;16.90;99.90;;;;;;6111072;23;20531;-84
2022/05/05 12:16:04;;;;;;;6.10;3.57;;;16.90;99.90;;;;;;6119484;23;20568;-84
2022/05/05 12:22:57;;;;;;;8.30;3.83;;;16.90;99.90;;;;;;5937584;23;20445;-85
2022/05/05 12:25:39;;;;;;;4.43;4.03;;;16.90;99.90;;;;;;6062988;23;20425;-83
2022/05/05 12:31:38;;;;;;;5.33;3.80;;;16.90;99.90;;;;;;6026353;23;20414;-85
2022/05/05 12:37:59;;;;;;;5.20;4.60;;;17.10;99.90;;;;;;6016518;23;20434;-86
2022/05/05 12:43:54;;;;;;;4.40;4.00;;;17.50;99.90;;;;;;6022405;23;20417;-85
2022/05/05 12:47:02;;;;;;;5.70;3.77;;;17.60;99.90;;;;;;6037831;23;20435;-86
2022/05/05 12:50:29;;;;;;;10.20;4.80;;;17.80;99.90;;;;;;6035524;23;20431;-88
2022/05/05 14:45:06;;;;;;;8.20;7.50;;;18.90;99.90;;;;;;5824102;24;20528;-85
2022/05/05 16:17:31;;;;;;;8.27;7.03;;;18.10;99.90;;;;;;6090622;22;3788763;-84
2022/05/05 16:31:14;;;;;;;7.47;6.07;;;19.40;99.90;;;;;;6090807;23;20453;-83
2022/05/05 16:40:32;;;;;;;7.13;6.20;;;19.50;99.90;;;;;;6155329;23;20457;-85
2022/05/05 16:43:04;;;;;;;6.50;5.00;;;19.40;99.90;;;;;;6157137;23;20410;-85
2022/05/05 16:45:57;;;;;;;6.87;6.23;;;19.30;99.90;;;;;;6156979;23;20412;-85
2022/05/05 16:53:15;;;;;;;;;;;;;;;;;;;;;
2022/05/05 16:59:53;;;;;;;9.13;5.70;;;18.60;99.90;;;;;;5934519;24;20485;-84
2022/05/05 17:24:03;;;;;;;11.10;7.30;;;17.20;99.90;;;;;;5811821;24;20484;-85
2022/05/05 17:27:19;;;;;;;6.17;5.40;;;17.00;99.90;;;;;;5838895;24;20919;-85
2022/05/05 17:37:38;;;;;;;9.10;4.87;;;16.80;99.90;;;;;;5987382;23;20547;-84
2022/05/05 18:00:22;;;;;;;5.43;4.60;;;16.00;99.90;;;;;;5900586;23;20451;-83
2022/05/05 18:03:04;;;;;;;6.27;4.57;;;15.80;99.90;;;;;;6028937;23;20509;-83
2022/05/05 18:08:59;;;;;;;6.17;4.83;;;15.60;99.90;;;;;;5953620;24;20525;-84
2022/05/05 18:12:28;;;;;;;;;;;;;;;;;;;;;
2022/05/05 18:15:47;;;;;;;5.03;4.63;;;15.50;99.90;;;;;;6055785;23;20417;-83
2022/05/05 18:26:53;;;;;;;7.37;5.03;;;15.00;99.90;;;;;;5960631;23;20451;-85
2022/05/05 18:29:33;;;;;;;6.03;4.57;;;14.90;99.90;;;;;;5979466;23;20463;-84
2022/05/05 18:32:04;;;;;;;7.57;5.30;;;14.80;99.90;;;;;;6056145;23;20440;-86
2022/05/05 18:34:36;;;;;;;6.33;4.60;;;14.80;99.90;;;;;;6098506;23;20444;-85
2022/05/05 18:37:24;;;;;;;5.83;5.17;;;14.80;99.90;;;;;;6095643;23;20412;-84
2022/05/05 18:39:59;;;;;;;6.23;5.53;;;14.70;99.90;;;;;;6096207;23;20443;-84
2022/05/05 18:42:29;;;;;;;6.90;4.97;;;14.60;99.90;;;;;;6094619;23;20440;-85
2022/05/05 18:49:19;;;;;;;6.40;5.57;;;14.50;99.90;;;;;;6012369;23;20459;-83
2022/05/05 18:52:39;;;;;;;6.63;4.73;;;14.50;99.90;;;;;;6058854;23;20433;-84
2022/05/05 18:55:29;;;;;;;7.47;5.40;;;14.40;99.90;;;;;;6055153;23;20657;-85
2022/05/05 19:06:09;;;;;;;5.50;5.00;;;14.20;99.90;;;;;;5936231;23;20443;-84
2022/05/05 19:16:18;;;;;;;6.77;5.47;;;13.90;99.90;;;;;;5988386;23;20404;-83
2022/05/05 19:25:59;;;;;;;6.33;5.73;;;13.70;99.90;;;;;;6148661;23;20404;-84
2022/05/05 19:28:31;;;;;;;5.80;5.30;;;13.70;99.90;;;;;;6205922;23;20905;-84
2022/05/05 19:30:59;;;;;;;6.77;6.07;;;13.60;99.90;;;;;;6207651;23;20439;-87
2022/05/05 19:33:31;;;;;;;6.20;5.60;;;13.50;99.90;;;;;;6205930;23;20432;-83
2022/05/05 19:36:00;;;;;;;6.90;6.00;;;13.40;99.90;;;;;;6205657;23;20414;-85
2022/05/05 19:38:28;;;;;;;6.53;5.90;;;13.40;99.90;;;;;;6203747;23;20433;-86
2022/05/05 19:40:56;;;;;;;8.13;7.33;;;13.40;99.90;;;;;;6205749;23;20437;-85
2022/05/05 19:48:15;;;;;;;7.20;6.37;;;13.30;99.90;;;;;;6026326;23;21017;-83
2022/05/05 20:08:48;;;;;;;7.63;6.17;;;12.80;99.90;;;;;;5822327;24;20495;-85
2022/05/05 20:11:21;;;;;;;8.60;7.80;;;12.80;99.90;;;;;;5897315;24;20441;-85
2022/05/05 20:13:49;;;;;;;9.30;6.60;;;12.80;99.90;;;;;;5914558;24;21060;-84
2022/05/05 20:16:17;;;;;;;9.07;6.60;;;12.70;99.90;;;;;;5915479;24;20445;-88
2022/05/05 20:18:45;;;;;;;9.73;6.27;;;12.60;99.90;;;;;;5950887;24;20446;-86
2022/05/05 20:21:13;;;;;;;8.47;7.67;;;12.60;99.90;;;;;;5972790;23;20440;-83
2022/05/05 20:23:42;;;;;;;8.83;7.57;;;12.50;99.90;;;;;;5971600;24;20563;-84
2022/05/05 20:26:12;;;;;;;10.97;8.20;;;12.40;99.90;;;;;;6010868;23;20531;-84
2022/05/05 20:28:41;;;;;;;7.93;7.10;;;12.40;99.90;;;;;;6036898;23;20445;-86
2022/05/05 20:31:09;;;;;;;7.87;7.07;;;12.30;99.90;;;;;;6089304;23;20500;-86
2022/05/05 20:33:38;;;;;;;10.00;7.77;;;12.20;99.90;;;;;;6088664;23;20488;-86
2022/05/05 20:36:07;;;;;;;9.70;7.00;;;12.20;99.90;;;;;;6088490;23;20422;-87
2022/05/05 20:38:35;;;;;;;10.00;7.70;;;12.10;99.90;;;;;;6115688;23;21293;-86
2022/05/05 20:41:04;;;;;;;13.03;7.70;;;12.00;99.90;;;;;;6210063;23;20439;-85
2022/05/05 20:43:34;;;;;;;8.73;7.90;;;12.00;99.90;;;;;;6210963;23;20894;-85
2022/05/05 20:46:02;;;;;;;8.80;6.57;;;12.00;99.90;;;;;;6208758;23;20440;-82
2022/05/05 20:48:36;;;;;;;7.40;6.70;;;11.90;99.90;;;;;;6209434;23;20416;-84
2022/05/05 20:51:05;;;;;;;11.30;7.93;;;11.90;99.90;;;;;;6210057;23;20425;-85
2022/05/05 20:53:35;;;;;;;11.70;7.77;;;11.80;99.90;;;;;;6210969;23;20460;-85
2022/05/05 20:56:03;;;;;;;8.63;7.60;;;11.70;99.90;;;;;;6212480;23;20436;-84
2022/05/05 20:58:37;;;;;;;7.83;7.03;;;11.70;99.90;;;;;;6215023;23;20408;-85
2022/05/05 21:01:09;;;;;;;13.80;7.83;;;11.70;99.90;;;;;;6214762;23;20436;-84
2022/05/05 21:03:40;;;;;;;10.33;7.70;;;11.60;99.90;;;;;;6214537;23;20405;-83
2022/05/05 21:12:45;;;;;;;9.90;7.97;;;11.40;99.90;;;;;;6218598;23;20421;-87
2022/05/05 21:15:16;;;;;;;10.73;8.30;;;11.40;99.90;;;;;;6218057;23;20428;-88
2022/05/05 21:17:44;;;;;;;10.17;8.23;;;11.40;99.90;;;;;;6219110;23;20416;-87
2022/05/05 21:27:07;;;;;;;9.57;7.07;;;11.30;99.90;;;;;;6104685;23;20411;-88
2022/05/05 21:29:38;;;;;;;12.03;9.30;;;11.20;99.90;;;;;;6127442;23;20813;-88
2022/05/05 21:35:49;;;;;;;10.57;8.40;;;11.20;99.90;;;;;;6097398;23;20175;-87
2022/05/05 21:38:19;;;;;;;9.10;7.80;;;11.20;99.90;;;;;;6118431;23;20469;-87
2022/05/05 21:40:47;;;;;;;8.93;7.83;;;11.20;99.90;;;;;;6118593;23;20498;-86
2022/05/05 21:43:23;;;;;;;10.27;8.90;;;11.20;99.90;;;;;;6120905;23;21090;-85
2022/05/05 21:50:04;;;;;;;9.33;8.23;;;11.10;99.90;;;;;;5917500;24;20221;-85
2022/05/05 21:56:47;;;;;;;9.30;8.33;;;11.00;99.90;;;;;;6120630;23;20856;-85
2022/05/05 21:59:15;;;;;;;10.07;7.37;;;10.90;99.90;;;;;;6116879;23;20563;-85
2022/05/05 22:01:43;;;;;;;9.10;8.03;;;10.90;99.90;;;;;;6119681;23;20407;-85
2022/05/05 22:04:16;;;;;;;9.30;7.55;;;10.80;99.90;;;;;;6119636;23;20408;-85
2022/05/05 22:06:53;;;;;;;9.50;7.35;;;10.80;99.90;;;;;;6119046;23;20195;-85
2022/05/05 22:09:33;;;;;;;11.80;8.77;;;10.80;99.90;;;;;;6144110;23;20383;-85
2022/05/05 22:12:08;;;;;;;12.43;8.13;;;10.70;99.90;;;;;;6146671;23;20642;-85
2022/05/05 22:14:51;;;;;;;9.23;7.50;;;10.70;99.90;;;;;;6211035;23;20551;-85
2022/05/05 22:17:45;;;;;;;9.05;7.40;;;10.70;99.90;;;;;;6203911;23;20268;-86
2022/05/05 22:20:17;;;;;;;9.88;7.40;;;10.60;99.90;;;;;;6208903;23;20218;-85
2022/05/05 22:22:56;;;;;;;8.45;7.35;;;10.60;99.90;;;;;;6208011;23;20205;-85
2022/05/05 22:25:26;;;;;;;10.70;8.02;;;10.50;99.90;;;;;;6208518;23;20170;-86
2022/05/05 22:27:56;;;;;;;9.57;7.07;;;10.50;99.90;;;;;;6209160;23;20174;-84
2022/05/05 22:30:25;;;;;;;10.10;8.10;;;10.40;99.90;;;;;;6212929;23;20259;-84
2022/05/05 22:32:55;;;;;;;9.50;7.50;;;10.40;99.90;;;;;;6210334;23;20181;-85
2022/05/05 22:35:24;;;;;;;14.73;8.75;;;10.40;99.90;;;;;;6213049;23;20702;-84
2022/05/05 22:37:52;;;;;;;8.55;7.07;;;10.30;99.90;;;;;;6210268;23;20223;-85
2022/05/05 22:43:08;;;;;;;10.48;8.77;;;10.20;99.90;;;;;;6210658;23;20146;-86
2022/05/05 22:45:36;;;;;;;12.45;8.40;;;10.20;99.90;;;;;;6210760;23;20302;-85
2022/05/05 22:50:26;;;;;;;11.18;8.18;;;10.20;99.90;;;;;;6210959;23;20249;-86
2022/05/05 22:50:53;;;;;;;10.65;8.23;;;10.10;99.90;;;;;;6206706;23;20273;-85
2022/05/05 22:53:21;;;;;;;16.10;9.10;;;10.10;99.90;;;;;;6206198;23;20173;-85
2022/05/05 22:55:52;;;;;;;10.77;7.68;;;10.00;99.90;;;;;;6222559;23;20209;-85
2022/05/05 22:58:25;;;;;;;12.50;9.52;;;10.00;99.90;;;;;;6212869;23;20154;-84
2022/05/05 23:00:55;;;;;;;13.98;9.30;;;9.90;99.90;;;;;;6209299;23;20252;-86
2022/05/05 23:03:23;;;;;;;13.43;8.88;;;9.90;99.90;;;;;;6211171;23;20208;-84
2022/05/05 23:05:51;;;;;;;11.98;8.73;;;9.90;99.90;;;;;;6211315;23;20664;-85
2022/05/05 23:08:22;;;;;;;10.90;8.90;;;9.80;99.90;;;;;;6214141;23;20612;-86
